Mt Bachelor previous 24hr weather report

For range May 29 2015 11:20 AM PDT to May 30 2015 11:20 AM PDT.

Date and time 6300' Base Temp 7800' Pine Temp 8000' Northwest Temp 9000' Summit Temp Base RH Pine RH Summit RH Pine Wind Avg Pine Wind Max Pine Wind Dir Northwest Wind Avg Northwest Wind Max Northwest Wind Dir Summit Wind Avg Summit Wind Max Summit Wind Dir Snowdepth
May 30 2015 11:00 AM PDT 57.78 -6999.0 n/a 45.65 48 -6999 66 0 0 0 n/a n/a n/a 22 28 292 161
May 30 2015 10:00 AM PDT 56.0 -6999.0 n/a 45.46 42 -6999 45 0 0 0 n/a n/a n/a 23 31 292 161
May 30 2015 9:00 AM PDT 55.04 -6999.0 n/a 45.85 64 -6999 63 0 0 0 n/a n/a n/a 20 25 292 162
May 30 2015 8:00 AM PDT 50.87 -6999.0 n/a 43.43 73 -6999 81 0 0 0 n/a n/a n/a 21 26 292 161
May 30 2015 7:00 AM PDT 47.33 -6999.0 n/a 42.53 83 -6999 86 0 0 0 n/a n/a n/a 22 28 292 161
May 30 2015 6:00 AM PDT 45.28 -6999.0 n/a 42.45 72 -6999 81 0 0 0 n/a n/a n/a 22 27 292 161
May 30 2015 5:00 AM PDT 47.9 -6999.0 n/a 42.07 64 -6999 59 0 0 0 n/a n/a n/a 29 35 292 161
May 30 2015 4:00 AM PDT 48.41 -6999.0 n/a 45.11 50 -6999 41 0 0 0 n/a n/a n/a 29 46 292 161
May 30 2015 3:00 AM PDT 47.68 -6999.0 n/a 45.66 55 -6999 34 0 0 0 n/a n/a n/a 26 34 292 161
May 30 2015 2:00 AM PDT 46.64 -6999.0 n/a 46.01 66 -6999 48 0 0 0 n/a n/a n/a 36 46 292 161
May 30 2015 1:00 AM PDT 47.46 -6999.0 n/a 46.72 58 -6999 64 0 0 0 n/a n/a n/a 29 34 292 161
May 30 2015 12:00 AM PDT 47.61 -6999.0 n/a 47.66 64 -6999 53 0 0 0 n/a n/a n/a 26 28 292 161
May 29 2015 11:00 PM PDT 50.55 -6999.0 n/a 48.46 63 -6999 49 0 0 0 n/a n/a n/a 30 32 292 161
May 29 2015 10:00 PM PDT 52.98 -6999.0 n/a 49.38 74 -6999 48 0 0 0 n/a n/a n/a 31 34 292 161
May 29 2015 9:00 PM PDT 52.69 -6999.0 n/a 52.12 75 -6999 66 0 0 0 n/a n/a n/a 25 27 292 161
May 29 2015 8:00 PM PDT 56.6 -6999.0 n/a 55.31 71 -6999 61 0 0 0 n/a n/a n/a 18 22 292 161
May 29 2015 7:00 PM PDT 58.72 -6999.0 n/a 54.35 68 -6999 64 0 0 0 n/a n/a n/a 19 24 292 161
May 29 2015 6:00 PM PDT 58.47 -6999.0 n/a 56.43 72 -6999 61 0 0 0 n/a n/a n/a 24 27 292 162
May 29 2015 5:00 PM PDT 54.14 -6999.0 n/a n/a 79 -6999 n/a 0 0 0 n/a n/a n/a n/a n/a n/a 161
May 29 2015 4:00 PM PDT 62.88 -6999.0 n/a 58.08 54 -6999 53 0 0 0 n/a n/a n/a 12 18 292 161
May 29 2015 3:00 PM PDT 65.47 37.81 n/a 57.9 46 76 53 22 36 86 n/a n/a n/a 15 22 292 162
May 29 2015 2:00 PM PDT 62.76 37.81 n/a 56.45 52 76 57 22 36 86 n/a n/a n/a 9 16 292 162
May 29 2015 1:00 PM PDT 63.64 37.81 n/a 52.27 45 76 57 22 36 86 n/a n/a n/a 14 22 292 162
May 29 2015 12:00 PM PDT 64.75 37.81 n/a 51.02 39 76 57 22 36 86 n/a n/a n/a 20 37 292 162